createdAt,value
2022-10-06T00:00:45.662Z,3.58
2022-10-06T00:03:47.327Z,3.80
2022-10-06T00:06:48.817Z,3.95
2022-10-06T00:09:50.358Z,3.78
2022-10-06T00:12:52.704Z,3.88
2022-10-06T00:15:54.260Z,3.53
2022-10-06T00:18:56.880Z,3.70
2022-10-06T00:21:58.367Z,3.58
2022-10-06T00:24:59.796Z,4.03
2022-10-06T00:28:01.938Z,3.88
2022-10-06T00:34:05.269Z,3.50
2022-10-06T00:37:06.756Z,3.92
2022-10-06T00:40:09.829Z,4.10
2022-10-06T00:43:36.936Z,4.00
2022-10-06T00:46:43.225Z,4.25
2022-10-06T00:49:45.829Z,3.75
2022-10-06T00:52:47.740Z,3.85
2022-10-06T00:55:49.790Z,3.92
2022-10-06T00:58:51.907Z,4.25
2022-10-06T01:02:01.518Z,4.35
2022-10-06T01:05:05.727Z,4.32
2022-10-06T01:08:07.697Z,4.18
2022-10-06T01:11:14.293Z,4.00
2022-10-06T01:14:17.408Z,4.40
2022-10-06T01:17:24.835Z,4.55
2022-10-06T01:20:26.532Z,4.10
2022-10-06T01:23:31.681Z,4.30
2022-10-06T01:26:36.111Z,4.43
2022-10-06T01:29:38.247Z,4.20
2022-10-06T01:32:40.629Z,4.70
2022-10-06T01:38:44.151Z,4.28
2022-10-06T01:41:47.794Z,4.45
2022-10-06T01:44:49.952Z,4.68
2022-10-06T01:47:51.705Z,4.10
2022-10-06T01:50:54.032Z,4.32
2022-10-06T01:53:55.491Z,4.45
2022-10-06T01:56:56.973Z,4.30
2022-10-06T01:59:58.799Z,4.50
2022-10-06T02:03:00.287Z,4.38
2022-10-06T02:06:02.341Z,4.20
2022-10-06T02:12:05.331Z,4.28
2022-10-06T02:15:08.122Z,4.10
2022-10-06T02:18:09.691Z,4.25
2022-10-06T02:21:17.214Z,4.13
2022-10-06T02:24:18.716Z,4.78
2022-10-06T02:27:20.745Z,4.13
2022-10-06T02:33:24.286Z,4.00
2022-10-06T02:36:26.605Z,4.50
2022-10-06T02:39:28.449Z,3.95
2022-10-06T02:42:31.478Z,4.03
2022-10-06T02:45:34.459Z,4.65
2022-10-06T02:48:36.073Z,4.75
2022-10-06T02:51:39.315Z,4.50
2022-10-06T02:54:41.256Z,4.30
2022-10-06T02:57:42.719Z,4.28
2022-10-06T03:00:44.351Z,4.40
2022-10-06T03:03:49.362Z,3.97
2022-10-06T03:06:52.628Z,4.00
2022-10-06T03:09:57.074Z,3.80
2022-10-06T03:13:00.068Z,3.92
2022-10-06T03:16:03.565Z,3.83
2022-10-06T03:19:06.508Z,3.97
2022-10-06T03:22:07.963Z,4.00
2022-10-06T03:25:16.264Z,4.10
2022-10-06T03:28:17.803Z,4.18
2022-10-06T03:31:20.096Z,4.20
2022-10-06T03:34:22.334Z,4.30
2022-10-06T03:37:24.059Z,3.85
2022-10-06T03:40:26.099Z,4.32
2022-10-06T03:43:27.698Z,4.38
2022-10-06T03:46:32.143Z,4.25
2022-10-06T03:49:33.848Z,4.30
2022-10-06T03:52:35.866Z,4.45
2022-10-06T03:55:37.368Z,4.20
2022-10-06T03:58:41.549Z,4.22
2022-10-06T04:01:45.811Z,4.53
2022-10-06T04:04:50.079Z,4.70
2022-10-06T04:10:53.614Z,4.35
2022-10-06T04:14:00.539Z,4.18
2022-10-06T04:17:03.064Z,4.50
2022-10-06T04:20:10.653Z,4.47
2022-10-06T04:23:12.405Z,4.72
2022-10-06T04:26:17.771Z,4.78
2022-10-06T04:29:23.572Z,4.57
2022-10-06T04:32:29.710Z,4.60
2022-10-06T04:35:31.453Z,5.20
2022-10-06T04:38:34.431Z,4.47
2022-10-06T04:41:37.878Z,4.30
2022-10-06T04:44:39.355Z,4.65
2022-10-06T04:47:41.304Z,4.50
2022-10-06T04:53:47.411Z,5.00
2022-10-06T04:56:50.161Z,4.15
2022-10-06T05:00:14.889Z,4.32
2022-10-06T05:03:19.399Z,4.25
2022-10-06T05:06:25.001Z,4.15
2022-10-06T05:09:26.919Z,3.95
2022-10-06T05:12:31.031Z,4.30
2022-10-06T05:15:33.007Z,3.80
2022-10-06T05:18:35.890Z,4.20
2022-10-06T05:21:38.690Z,3.78
2022-10-06T05:24:41.915Z,4.00
2022-10-06T05:27:43.371Z,4.32
2022-10-06T05:31:02.653Z,3.90
2022-10-06T05:34:05.190Z,3.92
2022-10-06T05:40:09.897Z,4.20
2022-10-06T05:43:11.426Z,4.00
2022-10-06T05:46:23.655Z,3.80
2022-10-06T05:49:25.953Z,3.60
2022-10-06T05:52:33.223Z,3.17
2022-10-06T05:55:34.908Z,3.10
2022-10-06T05:58:38.498Z,2.97
2022-10-06T06:01:41.705Z,2.72
2022-10-06T06:04:53.345Z,2.35
2022-10-06T06:07:55.076Z,2.60
2022-10-06T06:11:05.119Z,2.53
2022-10-06T06:14:09.304Z,2.72
2022-10-06T06:17:11.464Z,2.35
2022-10-06T06:20:13.300Z,2.30
2022-10-06T06:23:15.173Z,2.78
2022-10-06T06:26:20.064Z,2.38
2022-10-06T06:29:23.988Z,2.00
2022-10-06T06:32:26.849Z,3.08
2022-10-06T06:35:28.589Z,1.80
2022-10-06T06:38:32.158Z,2.00
2022-10-06T06:41:40.427Z,2.03
2022-10-06T06:44:54.199Z,2.50
2022-10-06T06:48:24.606Z,1.92
2022-10-06T06:51:26.026Z,1.75
2022-10-06T06:54:27.626Z,1.90
2022-10-06T06:57:35.422Z,1.80
2022-10-06T07:00:38.562Z,1.55
2022-10-06T07:03:57.133Z,1.75
2022-10-06T07:06:59.672Z,1.90
2022-10-06T07:10:04.822Z,1.67
2022-10-06T07:13:08.445Z,1.75
2022-10-06T07:16:31.028Z,1.60
2022-10-06T07:19:50.690Z,2.40
2022-10-06T07:23:12.242Z,1.88
2022-10-06T07:26:14.139Z,1.67
2022-10-06T07:29:16.857Z,1.40
2022-10-06T07:32:21.083Z,1.63
2022-10-06T07:35:23.807Z,1.40
2022-10-06T07:38:26.089Z,1.50
2022-10-06T07:41:30.462Z,1.50
2022-10-06T07:44:35.080Z,1.60
2022-10-06T07:47:39.437Z,1.52
2022-10-06T07:50:43.335Z,1.33
2022-10-06T07:53:46.742Z,1.85
2022-10-06T07:57:24.813Z,1.60
2022-10-06T08:00:27.089Z,1.40
2022-10-06T08:03:28.601Z,1.30
2022-10-06T08:06:30.021Z,2.03
2022-10-06T08:09:31.672Z,1.27
2022-10-06T08:12:33.357Z,1.40
2022-10-06T08:15:35.167Z,1.40
2022-10-06T08:18:52.813Z,1.83
2022-10-06T08:21:54.221Z,1.67
2022-10-06T08:25:05.757Z,1.38
2022-10-06T08:28:09.425Z,1.50
2022-10-06T08:31:11.559Z,1.70
2022-10-06T08:34:13.135Z,1.77
2022-10-06T08:37:20.088Z,1.58
2022-10-06T08:40:22.415Z,1.80
2022-10-06T08:43:25.644Z,1.50
2022-10-06T08:46:38.853Z,1.42
2022-10-06T08:49:47.145Z,1.50
2022-10-06T08:53:06.810Z,1.55
2022-10-06T08:56:18.525Z,1.92
2022-10-06T08:59:20.741Z,1.50
2022-10-06T09:02:32.378Z,1.88
2022-10-06T09:05:34.888Z,1.48
2022-10-06T09:09:01.575Z,1.15
2022-10-06T09:12:17.028Z,1.40
2022-10-06T09:15:35.094Z,1.10
2022-10-06T09:19:33.714Z,1.70
2022-10-06T09:22:04.564Z,1.27
2022-10-06T09:25:17.124Z,1.38
2022-10-06T09:28:18.799Z,1.35
2022-10-06T09:31:26.312Z,1.60
2022-10-06T09:34:45.567Z,1.20
2022-10-06T09:38:08.751Z,1.40
2022-10-06T09:41:13.245Z,1.40
2022-10-06T09:44:44.971Z,1.33
2022-10-06T09:47:46.565Z,1.15
2022-10-06T09:51:13.381Z,1.65
2022-10-06T09:54:16.812Z,2.47
2022-10-06T09:57:26.451Z,1.70
2022-10-06T10:00:35.779Z,1.48
2022-10-06T10:04:08.425Z,1.67
2022-10-06T10:07:26.135Z,1.50
2022-10-06T10:10:27.538Z,1.42
2022-10-06T10:13:42.267Z,1.33
2022-10-06T10:16:46.853Z,1.48
2022-10-06T10:19:54.052Z,1.30
2022-10-06T10:22:59.732Z,1.55
2022-10-06T10:26:20.891Z,1.50
2022-10-06T10:29:22.318Z,1.98
2022-10-06T10:32:29.783Z,1.67
2022-10-06T10:35:35.840Z,1.60
2022-10-06T10:38:40.985Z,1.38
2022-10-06T10:41:48.497Z,1.45
2022-10-06T10:44:57.097Z,1.88
2022-10-06T10:48:00.989Z,1.42
2022-10-06T10:51:14.724Z,1.98
2022-10-06T10:54:25.113Z,1.50
2022-10-06T10:57:35.009Z,1.25
2022-10-06T11:00:41.383Z,1.60
2022-10-06T11:03:43.480Z,1.30
2022-10-06T11:06:54.154Z,2.13
2022-10-06T11:10:17.402Z,1.63
2022-10-06T11:13:44.344Z,1.35
2022-10-06T11:17:01.340Z,1.48
2022-10-06T11:20:15.500Z,1.60
2022-10-06T11:23:43.587Z,1.60
2022-10-06T11:27:15.438Z,1.38
2022-10-06T11:30:26.292Z,1.40
2022-10-06T11:33:36.723Z,1.60
2022-10-06T11:37:00.661Z,1.20
2022-10-06T11:40:23.875Z,1.50
2022-10-06T11:43:47.293Z,1.48
2022-10-06T11:46:57.491Z,1.13
2022-10-06T11:49:58.905Z,1.90
2022-10-06T11:53:00.860Z,2.08
2022-10-06T11:56:17.490Z,1.27
2022-10-06T11:59:27.441Z,2.03
2022-10-06T12:02:36.557Z,1.63
2022-10-06T12:05:55.918Z,1.60
2022-10-06T12:08:58.446Z,1.27
2022-10-06T12:17:05.496Z,1.95
2022-10-06T12:19:19.249Z,1.50
2022-10-06T12:22:23.707Z,1.60
2022-10-06T12:25:56.912Z,1.83
2022-10-06T12:29:16.785Z,1.65
2022-10-06T12:32:37.072Z,1.65
2022-10-06T12:35:40.070Z,1.80
2022-10-06T12:38:44.383Z,1.20
2022-10-06T12:42:22.336Z,1.40
2022-10-06T12:45:23.904Z,1.60
2022-10-06T12:48:40.493Z,1.55
2022-10-06T12:51:44.415Z,1.50
2022-10-06T12:55:14.588Z,2.03
2022-10-06T12:58:18.679Z,1.77
2022-10-06T13:01:22.485Z,1.60
2022-10-06T13:04:31.250Z,1.50
2022-10-06T13:07:33.950Z,1.40
2022-10-06T13:10:35.537Z,1.45
2022-10-06T13:13:38.427Z,1.70
2022-10-06T13:16:43.030Z,2.20
2022-10-06T13:19:44.674Z,1.60
2022-10-06T13:22:46.169Z,1.70
2022-10-06T13:25:50.326Z,1.63
2022-10-06T13:28:54.465Z,1.70
2022-10-06T13:31:56.651Z,2.33
2022-10-06T13:34:58.485Z,1.75
2022-10-06T13:41:13.523Z,1.48
2022-10-06T13:44:34.790Z,1.65
2022-10-06T13:47:36.329Z,1.45
2022-10-06T13:50:39.268Z,1.75
2022-10-06T13:53:46.516Z,1.65
2022-10-06T13:56:47.956Z,1.90
2022-10-06T14:00:02.497Z,1.52
2022-10-06T14:03:07.621Z,2.00
2022-10-06T14:09:22.610Z,1.58
2022-10-06T14:12:24.245Z,1.90
2022-10-06T14:15:28.747Z,1.60
2022-10-06T14:18:40.150Z,1.58
2022-10-06T14:21:44.921Z,1.80
2022-10-06T14:24:51.220Z,1.80
2022-10-06T14:27:52.603Z,1.50
2022-10-06T14:30:56.349Z,2.00
2022-10-06T14:33:57.942Z,1.58
2022-10-06T14:36:59.347Z,2.03
2022-10-06T14:40:01.279Z,1.42
2022-10-06T14:43:03.166Z,1.70
2022-10-06T14:46:06.425Z,1.70
2022-10-06T14:49:10.654Z,1.60
2022-10-06T14:52:12.720Z,1.48
2022-10-06T14:55:14.453Z,1.50
2022-10-06T14:58:15.924Z,1.63
2022-10-06T15:01:19.935Z,1.60
2022-10-06T15:04:25.233Z,1.45
2022-10-06T15:07:45.134Z,1.60
2022-10-06T15:10:52.139Z,1.70
2022-10-06T15:13:55.591Z,1.80
2022-10-06T15:16:59.940Z,2.00
2022-10-06T15:20:01.512Z,1.60
2022-10-06T15:23:02.944Z,1.80
2022-10-06T15:26:24.164Z,1.52
2022-10-06T15:29:26.509Z,1.55
2022-10-06T15:32:28.063Z,1.67
2022-10-06T15:35:32.355Z,2.45
2022-10-06T15:38:36.219Z,2.20
2022-10-06T15:41:39.648Z,16.80
2022-10-06T15:44:41.212Z,2.10
2022-10-06T15:47:42.661Z,2.13
2022-10-06T15:50:44.143Z,2.88
2022-10-06T15:53:46.341Z,1.70
2022-10-06T15:56:49.358Z,1.65
2022-10-06T15:59:51.678Z,1.80
2022-10-06T16:02:53.173Z,1.75
2022-10-06T16:05:59.890Z,2.03
2022-10-06T16:09:01.296Z,1.70
2022-10-06T16:12:05.391Z,1.60
2022-10-06T16:15:07.233Z,1.90
2022-10-06T16:18:08.680Z,1.92
2022-10-06T16:21:10.066Z,1.60
2022-10-06T16:24:11.521Z,1.70
2022-10-06T16:27:14.637Z,1.75
2022-10-06T16:30:16.178Z,1.95
2022-10-06T16:33:17.630Z,2.15
2022-10-06T16:36:19.970Z,2.75
2022-10-06T16:39:22.194Z,3.25
2022-10-06T16:42:24.483Z,3.90
2022-10-06T16:45:25.858Z,3.28
2022-10-06T16:48:32.700Z,3.42
2022-10-06T16:51:39.614Z,2.63
2022-10-06T16:54:41.025Z,2.58
2022-10-06T16:57:42.410Z,2.88
2022-10-06T17:00:43.827Z,2.65
2022-10-06T17:03:45.704Z,2.47
2022-10-06T17:06:52.868Z,2.80
2022-10-06T17:10:15.653Z,2.60
2022-10-06T17:13:15.714Z,2.75
2022-10-06T17:16:19.980Z,2.72
2022-10-06T17:19:23.111Z,2.85
2022-10-06T17:22:25.044Z,3.10
2022-10-06T17:28:28.264Z,3.00
2022-10-06T17:31:35.645Z,3.40
2022-10-06T17:34:39.670Z,3.47
2022-10-06T17:37:41.208Z,3.53
2022-10-06T17:40:43.964Z,3.40
2022-10-06T17:43:48.164Z,3.80
2022-10-06T17:46:52.540Z,3.47
2022-10-06T17:49:56.644Z,3.75
2022-10-06T17:52:59.350Z,3.70
2022-10-06T17:56:08.814Z,4.20
2022-10-06T17:59:33.985Z,3.90
2022-10-06T18:02:35.995Z,3.50
2022-10-06T18:05:38.969Z,3.90
2022-10-06T18:08:42.491Z,3.65
2022-10-06T18:11:48.006Z,3.42
2022-10-06T18:14:50.337Z,3.42
2022-10-06T18:17:52.225Z,3.30
2022-10-06T18:21:01.855Z,3.30
2022-10-06T18:24:08.237Z,3.55
2022-10-06T18:27:09.911Z,2.90
2022-10-06T18:30:11.824Z,3.28
2022-10-06T18:35:57.588Z,3.50
2022-10-06T18:36:35.066Z,2.67
2022-10-06T18:39:36.444Z,2.85
2022-10-06T18:42:39.070Z,2.83
2022-10-06T18:45:59.530Z,2.38
2022-10-06T18:49:10.476Z,2.45
2022-10-06T18:52:15.023Z,2.50
2022-10-06T18:55:17.151Z,2.75
2022-10-06T19:01:21.030Z,3.20
2022-10-06T19:04:23.829Z,2.80
2022-10-06T19:07:25.683Z,2.65
2022-10-06T19:10:27.115Z,4.20
2022-10-06T19:13:28.556Z,4.63
2022-10-06T19:16:30.629Z,4.07
2022-10-06T19:22:34.701Z,4.38
2022-10-06T19:28:37.693Z,4.60
2022-10-06T19:31:42.601Z,4.15
2022-10-06T19:34:44.615Z,5.13
2022-10-06T19:40:48.414Z,4.55
2022-10-06T19:43:50.568Z,4.82
2022-10-06T19:50:00.779Z,5.10
2022-10-06T19:53:04.640Z,4.85
2022-10-06T19:56:06.431Z,3.92
2022-10-06T19:59:11.972Z,4.72
2022-10-06T20:02:13.498Z,4.00
2022-10-06T20:05:16.350Z,4.22
2022-10-06T20:08:17.948Z,4.22
2022-10-06T20:11:22.480Z,4.07
2022-10-06T20:14:24.578Z,4.10
2022-10-06T20:20:27.440Z,3.80
2022-10-06T20:23:29.063Z,3.70
2022-10-06T20:26:32.995Z,3.63
2022-10-06T20:29:34.543Z,3.70
2022-10-06T20:32:36.169Z,3.85
2022-10-06T20:35:37.584Z,3.60
2022-10-06T20:38:58.746Z,4.18
2022-10-06T20:42:00.392Z,4.32
2022-10-06T20:45:01.860Z,4.70
2022-10-06T20:48:03.380Z,4.47
2022-10-06T20:51:12.322Z,5.32
2022-10-06T20:54:16.145Z,5.53
2022-10-06T20:57:17.628Z,5.03
2022-10-06T21:00:19.273Z,5.25
2022-10-06T21:03:20.786Z,5.15
2022-10-06T21:06:24.086Z,5.47
2022-10-06T21:09:28.558Z,5.35
2022-10-06T21:12:30.278Z,5.07
2022-10-06T21:15:31.940Z,5.32
2022-10-06T21:18:34.210Z,4.93
2022-10-06T21:21:37.642Z,4.50
2022-10-06T21:24:39.180Z,5.20
2022-10-06T21:27:40.955Z,4.68
2022-10-06T21:30:44.254Z,4.05
2022-10-06T21:33:46.536Z,4.10
2022-10-06T21:36:48.184Z,4.13
2022-10-06T21:39:49.800Z,3.83
2022-10-06T21:42:51.325Z,3.90
2022-10-06T21:46:10.744Z,3.60
2022-10-06T21:49:17.242Z,3.77
2022-10-06T21:52:18.798Z,3.28
2022-10-06T21:55:20.376Z,3.60
2022-10-06T21:58:21.919Z,3.60
2022-10-06T22:01:26.601Z,2.97
2022-10-06T22:04:28.231Z,3.30
2022-10-06T22:07:29.886Z,3.22
2022-10-06T22:10:31.906Z,3.17
2022-10-06T22:13:33.855Z,2.90
2022-10-06T22:16:36.728Z,3.30
2022-10-06T22:19:38.390Z,3.25
2022-10-06T22:22:39.994Z,3.25
2022-10-06T22:25:41.583Z,3.22
2022-10-06T22:28:51.326Z,3.20
2022-10-06T22:31:52.954Z,4.13
2022-10-06T22:34:54.604Z,3.90
2022-10-06T22:37:56.119Z,3.30
2022-10-06T22:41:07.493Z,3.13
2022-10-06T22:44:09.099Z,3.28
2022-10-06T22:47:10.619Z,3.47
2022-10-06T22:50:12.114Z,3.47
2022-10-06T22:53:18.583Z,3.08
2022-10-06T22:56:20.583Z,3.40
2022-10-06T22:59:22.145Z,3.63
2022-10-06T23:02:23.661Z,3.33
2022-10-06T23:08:34.033Z,4.53
2022-10-06T23:11:36.543Z,3.83
2022-10-06T23:14:38.054Z,4.60
2022-10-06T23:17:40.508Z,4.20
2022-10-06T23:20:42.094Z,3.45
2022-10-06T23:23:43.659Z,3.65
2022-10-06T23:26:45.322Z,4.25
2022-10-06T23:29:47.039Z,4.65
2022-10-06T23:32:48.665Z,3.80
2022-10-06T23:36:01.716Z,4.00
2022-10-06T23:39:03.314Z,3.65
2022-10-06T23:42:05.038Z,4.07
2022-10-06T23:45:07.749Z,3.78
2022-10-06T23:48:09.453Z,3.67
2022-10-06T23:51:15.529Z,4.20
2022-10-06T23:54:17.139Z,3.22
2022-10-06T23:57:18.657Z,3.50
